sensor_id;sensor_type;location;lat;lon;timestamp;temperature;humidity
12229;DHT22;6177;52.402;9.800;2022-12-18T00:00:41;-5.10;75.30
12229;DHT22;6177;52.402;9.800;2022-12-18T00:03:26;-5.10;75.30
12229;DHT22;6177;52.402;9.800;2022-12-18T00:06:11;-5.20;75.20
12229;DHT22;6177;52.402;9.800;2022-12-18T00:09:00;-5.20;75.20
12229;DHT22;6177;52.402;9.800;2022-12-18T00:11:45;-5.10;75.20
12229;DHT22;6177;52.402;9.800;2022-12-18T00:14:30;-5.10;75.30
12229;DHT22;6177;52.402;9.800;2022-12-18T00:17:15;-5.10;75.30
12229;DHT22;6177;52.402;9.800;2022-12-18T00:20:00;-5.10;75.30
12229;DHT22;6177;52.402;9.800;2022-12-18T00:22:45;-5.10;75.40
12229;DHT22;6177;52.402;9.800;2022-12-18T00:25:33;-5.10;75.60
12229;DHT22;6177;52.402;9.800;2022-12-18T00:28:18;-5.10;75.70
12229;DHT22;6177;52.402;9.800;2022-12-18T00:31:08;-5.10;75.80
12229;DHT22;6177;52.402;9.800;2022-12-18T00:33:54;-5.10;75.80
12229;DHT22;6177;52.402;9.800;2022-12-18T00:36:41;-5.10;75.80
12229;DHT22;6177;52.402;9.800;2022-12-18T00:39:26;-5.10;75.80
12229;DHT22;6177;52.402;9.800;2022-12-18T00:42:11;-5.10;75.80
12229;DHT22;6177;52.402;9.800;2022-12-18T00:45:14;-5.10;75.80
12229;DHT22;6177;52.402;9.800;2022-12-18T00:47:59;-5.20;75.70
12229;DHT22;6177;52.402;9.800;2022-12-18T00:50:44;-5.10;75.80
12229;DHT22;6177;52.402;9.800;2022-12-18T00:53:29;-5.20;75.70
12229;DHT22;6177;52.402;9.800;2022-12-18T00:56:14;-5.10;75.80
12229;DHT22;6177;52.402;9.800;2022-12-18T00:59:00;-5.10;75.80
12229;DHT22;6177;52.402;9.800;2022-12-18T01:01:46;-5.10;75.90
12229;DHT22;6177;52.402;9.800;2022-12-18T01:04:32;-5.10;76.00
12229;DHT22;6177;52.402;9.800;2022-12-18T01:07:18;-5.20;75.80
12229;DHT22;6177;52.402;9.800;2022-12-18T01:10:05;-5.20;75.80
12229;DHT22;6177;52.402;9.800;2022-12-18T01:12:50;-5.20;75.80
12229;DHT22;6177;52.402;9.800;2022-12-18T01:15:36;-5.20;75.80
12229;DHT22;6177;52.402;9.800;2022-12-18T01:18:21;-5.20;75.90
12229;DHT22;6177;52.402;9.800;2022-12-18T01:21:14;-5.20;76.00
12229;DHT22;6177;52.402;9.800;2022-12-18T01:24:00;-5.20;76.00
12229;DHT22;6177;52.402;9.800;2022-12-18T01:26:45;-5.20;76.10
12229;DHT22;6177;52.402;9.800;2022-12-18T01:29:32;-5.20;76.10
12229;DHT22;6177;52.402;9.800;2022-12-18T01:32:17;-5.10;76.00
12229;DHT22;6177;52.402;9.800;2022-12-18T01:35:03;-5.10;75.90
12229;DHT22;6177;52.402;9.800;2022-12-18T01:37:48;-5.00;75.90
12229;DHT22;6177;52.402;9.800;2022-12-18T01:40:33;-5.00;75.80
12229;DHT22;6177;52.402;9.800;2022-12-18T01:43:18;-5.00;75.80
12229;DHT22;6177;52.402;9.800;2022-12-18T01:46:04;-5.00;75.70
12229;DHT22;6177;52.402;9.800;2022-12-18T01:48:55;-5.00;75.70
12229;DHT22;6177;52.402;9.800;2022-12-18T01:51:42;-4.90;75.80
12229;DHT22;6177;52.402;9.800;2022-12-18T01:54:27;-4.90;75.90
12229;DHT22;6177;52.402;9.800;2022-12-18T01:57:12;-4.90;76.00
12229;DHT22;6177;52.402;9.800;2022-12-18T02:00:02;-4.90;76.00
12229;DHT22;6177;52.402;9.800;2022-12-18T02:02:57;-5.00;76.10
12229;DHT22;6177;52.402;9.800;2022-12-18T02:08:51;-5.00;76.50
12229;DHT22;6177;52.402;9.800;2022-12-18T02:17:34;-5.10;76.60
12229;DHT22;6177;52.402;9.800;2022-12-18T02:20:27;-5.20;76.60
12229;DHT22;6177;52.402;9.800;2022-12-18T02:23:35;-5.20;76.60
12229;DHT22;6177;52.402;9.800;2022-12-18T02:26:29;-5.20;76.60
12229;DHT22;6177;52.402;9.800;2022-12-18T02:29:20;-5.30;76.50
12229;DHT22;6177;52.402;9.800;2022-12-18T02:32:11;-5.30;76.40
12229;DHT22;6177;52.402;9.800;2022-12-18T02:34:59;-5.30;76.40
12229;DHT22;6177;52.402;9.800;2022-12-18T02:37:47;-5.30;76.40
12229;DHT22;6177;52.402;9.800;2022-12-18T02:40:34;-5.30;76.40
12229;DHT22;6177;52.402;9.800;2022-12-18T02:43:22;-5.30;76.30
12229;DHT22;6177;52.402;9.800;2022-12-18T02:49:35;-5.40;76.10
12229;DHT22;6177;52.402;9.800;2022-12-18T02:53:21;-5.50;76.10
12229;DHT22;6177;52.402;9.800;2022-12-18T02:56:10;-5.50;76.10
12229;DHT22;6177;52.402;9.800;2022-12-18T02:58:59;-5.60;76.10
12229;DHT22;6177;52.402;9.800;2022-12-18T03:08:08;-5.50;76.20
12229;DHT22;6177;52.402;9.800;2022-12-18T03:10:59;-5.50;76.00
12229;DHT22;6177;52.402;9.800;2022-12-18T03:13:52;-5.50;76.00
12229;DHT22;6177;52.402;9.800;2022-12-18T03:16:42;-5.60;76.00
12229;DHT22;6177;52.402;9.800;2022-12-18T03:19:32;-5.60;76.10
12229;DHT22;6177;52.402;9.800;2022-12-18T03:22:20;-5.60;76.10
12229;DHT22;6177;52.402;9.800;2022-12-18T03:25:12;-5.60;76.00
12229;DHT22;6177;52.402;9.800;2022-12-18T03:28:02;-5.60;76.10
12229;DHT22;6177;52.402;9.800;2022-12-18T03:31:20;-5.60;76.10
12229;DHT22;6177;52.402;9.800;2022-12-18T03:34:27;-5.60;76.10
12229;DHT22;6177;52.402;9.800;2022-12-18T03:37:16;-5.60;76.10
12229;DHT22;6177;52.402;9.800;2022-12-18T03:40:09;-5.60;76.20
12229;DHT22;6177;52.402;9.800;2022-12-18T03:43:28;-5.60;76.20
12229;DHT22;6177;52.402;9.800;2022-12-18T03:46:54;-5.70;76.40
12229;DHT22;6177;52.402;9.800;2022-12-18T03:53:30;-5.90;76.40
12229;DHT22;6177;52.402;9.800;2022-12-18T03:56:20;-5.90;76.30
12229;DHT22;6177;52.402;9.800;2022-12-18T03:59:08;-6.00;76.20
12229;DHT22;6177;52.402;9.800;2022-12-18T04:01:56;-6.10;76.10
12229;DHT22;6177;52.402;9.800;2022-12-18T04:04:46;-6.20;76.50
12229;DHT22;6177;52.402;9.800;2022-12-18T04:07:32;-6.20;76.20
12229;DHT22;6177;52.402;9.800;2022-12-18T04:10:18;-6.20;76.30
12229;DHT22;6177;52.402;9.800;2022-12-18T04:13:04;-6.30;76.20
12229;DHT22;6177;52.402;9.800;2022-12-18T04:15:49;-6.30;76.40
12229;DHT22;6177;52.402;9.800;2022-12-18T04:18:36;-6.30;76.40
12229;DHT22;6177;52.402;9.800;2022-12-18T04:21:21;-6.30;76.40
12229;DHT22;6177;52.402;9.800;2022-12-18T04:24:08;-6.40;76.40
12229;DHT22;6177;52.402;9.800;2022-12-18T04:26:56;-6.40;76.40
12229;DHT22;6177;52.402;9.800;2022-12-18T04:29:44;-6.40;76.50
12229;DHT22;6177;52.402;9.800;2022-12-18T04:32:29;-6.50;76.50
12229;DHT22;6177;52.402;9.800;2022-12-18T04:35:14;-6.40;76.50
12229;DHT22;6177;52.402;9.800;2022-12-18T04:38:02;-6.50;76.60
12229;DHT22;6177;52.402;9.800;2022-12-18T04:40:47;-6.50;76.50
12229;DHT22;6177;52.402;9.800;2022-12-18T04:43:39;-6.50;76.50
12229;DHT22;6177;52.402;9.800;2022-12-18T04:46:25;-6.50;76.60
12229;DHT22;6177;52.402;9.800;2022-12-18T04:49:10;-6.60;76.50
12229;DHT22;6177;52.402;9.800;2022-12-18T04:51:55;-6.50;76.60
12229;DHT22;6177;52.402;9.800;2022-12-18T04:54:40;-6.60;76.60
12229;DHT22;6177;52.402;9.800;2022-12-18T04:57:25;-6.50;76.60
12229;DHT22;6177;52.402;9.800;2022-12-18T05:00:11;-6.60;76.50
12229;DHT22;6177;52.402;9.800;2022-12-18T05:02:56;-6.60;76.50
12229;DHT22;6177;52.402;9.800;2022-12-18T05:05:41;-6.60;76.50
12229;DHT22;6177;52.402;9.800;2022-12-18T05:08:27;-6.70;76.40
12229;DHT22;6177;52.402;9.800;2022-12-18T05:11:14;-6.70;76.50
12229;DHT22;6177;52.402;9.800;2022-12-18T05:14:00;-6.70;76.70
12229;DHT22;6177;52.402;9.800;2022-12-18T05:16:45;-6.60;76.70
12229;DHT22;6177;52.402;9.800;2022-12-18T05:19:30;-6.60;76.70
12229;DHT22;6177;52.402;9.800;2022-12-18T05:22:15;-6.60;76.70
12229;DHT22;6177;52.402;9.800;2022-12-18T05:25:01;-6.60;76.70
12229;DHT22;6177;52.402;9.800;2022-12-18T05:27:46;-6.50;77.00
12229;DHT22;6177;52.402;9.800;2022-12-18T05:30:31;-6.50;77.00
12229;DHT22;6177;52.402;9.800;2022-12-18T05:33:19;-6.50;77.00
12229;DHT22;6177;52.402;9.800;2022-12-18T05:36:09;-6.50;76.90
12229;DHT22;6177;52.402;9.800;2022-12-18T05:39:24;-6.50;77.00
12229;DHT22;6177;52.402;9.800;2022-12-18T05:42:09;-6.60;76.90
12229;DHT22;6177;52.402;9.800;2022-12-18T05:44:54;-6.60;76.80
12229;DHT22;6177;52.402;9.800;2022-12-18T05:47:39;-6.60;76.90
12229;DHT22;6177;52.402;9.800;2022-12-18T05:50:24;-6.60;76.90
12229;DHT22;6177;52.402;9.800;2022-12-18T05:53:09;-6.60;76.90
12229;DHT22;6177;52.402;9.800;2022-12-18T05:56:03;-6.60;76.90
12229;DHT22;6177;52.402;9.800;2022-12-18T05:58:52;-6.70;76.90
12229;DHT22;6177;52.402;9.800;2022-12-18T06:01:37;-6.70;77.30
12229;DHT22;6177;52.402;9.800;2022-12-18T06:04:22;-6.70;77.00
12229;DHT22;6177;52.402;9.800;2022-12-18T06:07:07;-6.70;77.00
12229;DHT22;6177;52.402;9.800;2022-12-18T06:09:52;-6.70;77.00
12229;DHT22;6177;52.402;9.800;2022-12-18T06:12:38;-6.80;77.00
12229;DHT22;6177;52.402;9.800;2022-12-18T06:15:22;-6.80;76.90
12229;DHT22;6177;52.402;9.800;2022-12-18T06:18:07;-6.80;76.90
12229;DHT22;6177;52.402;9.800;2022-12-18T06:20:56;-6.90;76.80
12229;DHT22;6177;52.402;9.800;2022-12-18T06:23:41;-6.90;76.80
12229;DHT22;6177;52.402;9.800;2022-12-18T06:26:26;-7.00;76.70
12229;DHT22;6177;52.402;9.800;2022-12-18T06:29:11;-7.00;76.70
12229;DHT22;6177;52.402;9.800;2022-12-18T06:32:00;-7.00;76.80
12229;DHT22;6177;52.402;9.800;2022-12-18T06:34:46;-7.00;76.90
12229;DHT22;6177;52.402;9.800;2022-12-18T06:37:31;-7.00;76.90
12229;DHT22;6177;52.402;9.800;2022-12-18T06:40:17;-7.00;76.80
12229;DHT22;6177;52.402;9.800;2022-12-18T06:43:01;-7.00;76.90
12229;DHT22;6177;52.402;9.800;2022-12-18T06:45:46;-7.00;76.90
12229;DHT22;6177;52.402;9.800;2022-12-18T06:48:38;-7.00;76.90
12229;DHT22;6177;52.402;9.800;2022-12-18T06:51:24;-7.00;76.90
12229;DHT22;6177;52.402;9.800;2022-12-18T06:54:09;-7.00;76.90
12229;DHT22;6177;52.402;9.800;2022-12-18T06:56:56;-7.00;77.00
12229;DHT22;6177;52.402;9.800;2022-12-18T06:59:41;-7.00;77.00
12229;DHT22;6177;52.402;9.800;2022-12-18T07:02:26;-7.00;76.90
12229;DHT22;6177;52.402;9.800;2022-12-18T07:05:11;-7.00;77.00
12229;DHT22;6177;52.402;9.800;2022-12-18T07:07:57;-7.00;76.90
12229;DHT22;6177;52.402;9.800;2022-12-18T07:10:43;-7.00;76.80
12229;DHT22;6177;52.402;9.800;2022-12-18T07:13:28;-7.00;76.90
12229;DHT22;6177;52.402;9.800;2022-12-18T07:16:22;-7.00;76.90
12229;DHT22;6177;52.402;9.800;2022-12-18T07:19:07;-7.00;76.80
12229;DHT22;6177;52.402;9.800;2022-12-18T07:21:52;-7.00;76.80
12229;DHT22;6177;52.402;9.800;2022-12-18T07:24:37;-7.00;76.80
12229;DHT22;6177;52.402;9.800;2022-12-18T07:27:22;-7.00;76.80
12229;DHT22;6177;52.402;9.800;2022-12-18T07:30:08;-7.00;76.80
12229;DHT22;6177;52.402;9.800;2022-12-18T07:32:53;-6.90;76.90
12229;DHT22;6177;52.402;9.800;2022-12-18T07:35:38;-6.90;76.80
12229;DHT22;6177;52.402;9.800;2022-12-18T07:38:23;-6.90;76.90
12229;DHT22;6177;52.402;9.800;2022-12-18T07:41:10;-6.90;76.90
12229;DHT22;6177;52.402;9.800;2022-12-18T07:43:55;-6.80;77.00
12229;DHT22;6177;52.402;9.800;2022-12-18T07:46:40;-6.80;77.00
12229;DHT22;6177;52.402;9.800;2022-12-18T07:49:25;-6.70;77.00
12229;DHT22;6177;52.402;9.800;2022-12-18T07:52:10;-6.60;77.00
12229;DHT22;6177;52.402;9.800;2022-12-18T07:54:56;-6.60;76.90
12229;DHT22;6177;52.402;9.800;2022-12-18T07:57:41;-6.50;76.90
12229;DHT22;6177;52.402;9.800;2022-12-18T08:00:26;-6.50;76.90
12229;DHT22;6177;52.402;9.800;2022-12-18T08:03:12;-6.40;76.90
12229;DHT22;6177;52.402;9.800;2022-12-18T08:06:04;-6.40;76.80
12229;DHT22;6177;52.402;9.800;2022-12-18T08:08:52;-6.30;76.90
12229;DHT22;6177;52.402;9.800;2022-12-18T08:11:37;-6.30;76.80
12229;DHT22;6177;52.402;9.800;2022-12-18T08:14:22;-6.20;76.80
12229;DHT22;6177;52.402;9.800;2022-12-18T08:17:07;-6.20;76.80
12229;DHT22;6177;52.402;9.800;2022-12-18T08:19:52;-6.10;76.70
12229;DHT22;6177;52.402;9.800;2022-12-18T08:22:37;-6.00;76.80
12229;DHT22;6177;52.402;9.800;2022-12-18T08:25:24;-6.00;76.80
12229;DHT22;6177;52.402;9.800;2022-12-18T08:28:08;-5.90;76.80
12229;DHT22;6177;52.402;9.800;2022-12-18T08:30:53;-5.80;76.60
12229;DHT22;6177;52.402;9.800;2022-12-18T08:33:39;-5.70;76.60
12229;DHT22;6177;52.402;9.800;2022-12-18T08:36:35;-5.70;76.50
12229;DHT22;6177;52.402;9.800;2022-12-18T08:39:26;-5.60;76.50
12229;DHT22;6177;52.402;9.800;2022-12-18T08:42:13;-5.50;76.50
12229;DHT22;6177;52.402;9.800;2022-12-18T08:45:17;-5.40;76.50
12229;DHT22;6177;52.402;9.800;2022-12-18T08:48:02;-5.30;76.30
12229;DHT22;6177;52.402;9.800;2022-12-18T08:50:58;-5.20;76.20
12229;DHT22;6177;52.402;9.800;2022-12-18T08:53:44;-5.10;76.10
12229;DHT22;6177;52.402;9.800;2022-12-18T08:56:29;-5.00;75.80
12229;DHT22;6177;52.402;9.800;2022-12-18T08:59:14;-4.90;75.60
12229;DHT22;6177;52.402;9.800;2022-12-18T09:02:00;-4.80;75.50
12229;DHT22;6177;52.402;9.800;2022-12-18T09:04:47;-4.70;75.40
12229;DHT22;6177;52.402;9.800;2022-12-18T09:07:32;-4.60;75.30
12229;DHT22;6177;52.402;9.800;2022-12-18T09:10:17;-4.50;75.00
12229;DHT22;6177;52.402;9.800;2022-12-18T09:13:02;-4.30;74.90
12229;DHT22;6177;52.402;9.800;2022-12-18T09:15:50;-4.20;74.70
12229;DHT22;6177;52.402;9.800;2022-12-18T09:18:36;-4.10;74.70
12229;DHT22;6177;52.402;9.800;2022-12-18T09:21:21;-4.00;74.50
12229;DHT22;6177;52.402;9.800;2022-12-18T09:24:05;-3.90;74.30
12229;DHT22;6177;52.402;9.800;2022-12-18T09:26:52;-3.70;74.20
12229;DHT22;6177;52.402;9.800;2022-12-18T09:29:37;-3.60;74.20
12229;DHT22;6177;52.402;9.800;2022-12-18T09:32:22;-3.50;73.90
12229;DHT22;6177;52.402;9.800;2022-12-18T09:35:07;-3.40;73.80
12229;DHT22;6177;52.402;9.800;2022-12-18T09:37:53;-3.30;73.70
12229;DHT22;6177;52.402;9.800;2022-12-18T09:40:48;-3.20;73.60
12229;DHT22;6177;52.402;9.800;2022-12-18T09:43:47;-3.10;73.40
12229;DHT22;6177;52.402;9.800;2022-12-18T09:46:34;-2.90;73.30
12229;DHT22;6177;52.402;9.800;2022-12-18T09:49:22;-2.70;73.20
12229;DHT22;6177;52.402;9.800;2022-12-18T09:54:59;-2.30;72.40
12229;DHT22;6177;52.402;9.800;2022-12-18T09:57:49;-2.20;72.10
12229;DHT22;6177;52.402;9.800;2022-12-18T10:00:35;-2.00;72.00
12229;DHT22;6177;52.402;9.800;2022-12-18T10:03:20;-1.90;71.80
12229;DHT22;6177;52.402;9.800;2022-12-18T10:17:54;-1.30;71.30
12229;DHT22;6177;52.402;9.800;2022-12-18T10:20:45;-1.30;71.10
12229;DHT22;6177;52.402;9.800;2022-12-18T10:26:27;-1.20;71.10
12229;DHT22;6177;52.402;9.800;2022-12-18T10:29:12;-1.10;71.10
12229;DHT22;6177;52.402;9.800;2022-12-18T10:31:58;-1.00;71.00
12229;DHT22;6177;52.402;9.800;2022-12-18T10:34:48;-0.90;70.90
12229;DHT22;6177;52.402;9.800;2022-12-18T10:37:33;-0.80;70.70
12229;DHT22;6177;52.402;9.800;2022-12-18T10:40:18;-0.80;70.60
12229;DHT22;6177;52.402;9.800;2022-12-18T10:43:13;-0.80;70.50
12229;DHT22;6177;52.402;9.800;2022-12-18T10:46:01;-0.70;70.50
12229;DHT22;6177;52.402;9.800;2022-12-18T10:51:33;-0.50;70.10
12229;DHT22;6177;52.402;9.800;2022-12-18T10:54:21;-0.40;69.50
12229;DHT22;6177;52.402;9.800;2022-12-18T11:06:16;0.10;68.40
12229;DHT22;6177;52.402;9.800;2022-12-18T11:11:50;0.30;67.90
12229;DHT22;6177;52.402;9.800;2022-12-18T11:14:46;0.40;67.70
12229;DHT22;6177;52.402;9.800;2022-12-18T11:17:32;0.60;67.40
12229;DHT22;6177;52.402;9.800;2022-12-18T11:20:32;0.60;67.30
12229;DHT22;6177;52.402;9.800;2022-12-18T11:23:19;0.70;67.30
12229;DHT22;6177;52.402;9.800;2022-12-18T11:26:05;0.80;67.20
12229;DHT22;6177;52.402;9.800;2022-12-18T11:28:51;0.90;66.90
12229;DHT22;6177;52.402;9.800;2022-12-18T11:31:36;0.90;66.80
12229;DHT22;6177;52.402;9.800;2022-12-18T11:34:24;1.00;66.90
12229;DHT22;6177;52.402;9.800;2022-12-18T11:37:12;1.10;67.00
12229;DHT22;6177;52.402;9.800;2022-12-18T11:40:00;1.10;67.00
12229;DHT22;6177;52.402;9.800;2022-12-18T11:45:51;1.20;66.90
12229;DHT22;6177;52.402;9.800;2022-12-18T11:48:40;1.20;67.00
12229;DHT22;6177;52.402;9.800;2022-12-18T11:51:33;1.20;67.20
12229;DHT22;6177;52.402;9.800;2022-12-18T11:54:19;1.10;67.20
12229;DHT22;6177;52.402;9.800;2022-12-18T12:18:37;1.70;66.10
12229;DHT22;6177;52.402;9.800;2022-12-18T12:23:59;1.80;65.00
12229;DHT22;6177;52.402;9.800;2022-12-18T12:26:49;1.70;64.80
12229;DHT22;6177;52.402;9.800;2022-12-18T12:41:19;1.30;65.40
12229;DHT22;6177;52.402;9.800;2022-12-18T12:47:21;1.20;65.50
12229;DHT22;6177;52.402;9.800;2022-12-18T12:50:11;1.10;65.50
12229;DHT22;6177;52.402;9.800;2022-12-18T12:52:57;1.10;65.60
12229;DHT22;6177;52.402;9.800;2022-12-18T12:55:41;1.10;65.70
12229;DHT22;6177;52.402;9.800;2022-12-18T13:01:25;1.00;65.90
12229;DHT22;6177;52.402;9.800;2022-12-18T13:04:15;0.90;65.90
12229;DHT22;6177;52.402;9.800;2022-12-18T13:12:55;0.90;66.00
12229;DHT22;6177;52.402;9.800;2022-12-18T13:16:03;0.80;65.90
12229;DHT22;6177;52.402;9.800;2022-12-18T13:18:53;0.80;65.90
12229;DHT22;6177;52.402;9.800;2022-12-18T13:21:40;0.70;66.10
12229;DHT22;6177;52.402;9.800;2022-12-18T13:24:27;0.70;66.10
12229;DHT22;6177;52.402;9.800;2022-12-18T13:38:46;0.60;65.90
12229;DHT22;6177;52.402;9.800;2022-12-18T13:41:31;0.50;65.80
12229;DHT22;6177;52.402;9.800;2022-12-18T13:44:31;0.50;65.90
12229;DHT22;6177;52.402;9.800;2022-12-18T13:47:27;0.50;65.90
12229;DHT22;6177;52.402;9.800;2022-12-18T13:50:23;0.40;65.90
12229;DHT22;6177;52.402;9.800;2022-12-18T13:53:15;0.30;65.90
12229;DHT22;6177;52.402;9.800;2022-12-18T13:56:05;0.30;66.00
12229;DHT22;6177;52.402;9.800;2022-12-18T13:59:14;0.20;66.00
12229;DHT22;6177;52.402;9.800;2022-12-18T14:04:56;0.10;66.50
12229;DHT22;6177;52.402;9.800;2022-12-18T14:07:42;0.10;66.60
12229;DHT22;6177;52.402;9.800;2022-12-18T14:10:27;0.00;66.70
12229;DHT22;6177;52.402;9.800;2022-12-18T14:13:28;-0.10;66.80
12229;DHT22;6177;52.402;9.800;2022-12-18T14:16:15;-0.10;67.00
12229;DHT22;6177;52.402;9.800;2022-12-18T14:19:02;-0.20;67.00
12229;DHT22;6177;52.402;9.800;2022-12-18T14:21:48;-0.30;67.10
12229;DHT22;6177;52.402;9.800;2022-12-18T14:24:35;-0.30;67.20
12229;DHT22;6177;52.402;9.800;2022-12-18T14:27:25;-0.40;67.30
12229;DHT22;6177;52.402;9.800;2022-12-18T14:30:38;-0.40;67.50
12229;DHT22;6177;52.402;9.800;2022-12-18T14:33:26;-0.50;67.80
12229;DHT22;6177;52.402;9.800;2022-12-18T14:36:18;-0.60;68.00
12229;DHT22;6177;52.402;9.800;2022-12-18T14:39:03;-0.60;68.20
12229;DHT22;6177;52.402;9.800;2022-12-18T14:41:48;-0.70;68.30
12229;DHT22;6177;52.402;9.800;2022-12-18T14:44:34;-0.80;68.50
12229;DHT22;6177;52.402;9.800;2022-12-18T14:47:19;-0.90;68.80
12229;DHT22;6177;52.402;9.800;2022-12-18T14:50:11;-0.90;69.10
12229;DHT22;6177;52.402;9.800;2022-12-18T14:52:56;-0.90;68.90
12229;DHT22;6177;52.402;9.800;2022-12-18T14:55:44;-1.00;68.80
12229;DHT22;6177;52.402;9.800;2022-12-18T14:58:30;-1.00;69.00
12229;DHT22;6177;52.402;9.800;2022-12-18T15:01:19;-1.10;69.10
12229;DHT22;6177;52.402;9.800;2022-12-18T15:04:05;-1.20;69.10
12229;DHT22;6177;52.402;9.800;2022-12-18T15:07:02;-1.30;69.20
12229;DHT22;6177;52.402;9.800;2022-12-18T15:18:32;-1.40;69.90
12229;DHT22;6177;52.402;9.800;2022-12-18T15:21:19;-1.40;70.00
12229;DHT22;6177;52.402;9.800;2022-12-18T15:24:04;-1.40;70.20
12229;DHT22;6177;52.402;9.800;2022-12-18T15:26:59;-1.30;70.30
12229;DHT22;6177;52.402;9.800;2022-12-18T15:29:44;-1.30;70.60
12229;DHT22;6177;52.402;9.800;2022-12-18T15:32:44;-1.30;70.60
12229;DHT22;6177;52.402;9.800;2022-12-18T15:35:29;-1.30;70.60
12229;DHT22;6177;52.402;9.800;2022-12-18T15:38:14;-1.40;70.50
12229;DHT22;6177;52.402;9.800;2022-12-18T15:41:00;-1.40;70.70
12229;DHT22;6177;52.402;9.800;2022-12-18T15:43:50;-1.40;70.60
12229;DHT22;6177;52.402;9.800;2022-12-18T15:46:36;-1.40;71.00
12229;DHT22;6177;52.402;9.800;2022-12-18T15:49:20;-1.40;70.70
12229;DHT22;6177;52.402;9.800;2022-12-18T15:52:06;-1.40;70.70
12229;DHT22;6177;52.402;9.800;2022-12-18T15:54:51;-1.50;70.80
12229;DHT22;6177;52.402;9.800;2022-12-18T15:57:54;-1.60;70.80
12229;DHT22;6177;52.402;9.800;2022-12-18T16:00:40;-1.60;70.90
12229;DHT22;6177;52.402;9.800;2022-12-18T16:03:25;-1.60;71.00
12229;DHT22;6177;52.402;9.800;2022-12-18T16:06:10;-1.60;71.30
12229;DHT22;6177;52.402;9.800;2022-12-18T16:08:56;-1.60;71.50
12229;DHT22;6177;52.402;9.800;2022-12-18T16:11:43;-1.60;71.60
12229;DHT22;6177;52.402;9.800;2022-12-18T16:14:30;-1.50;71.80
12229;DHT22;6177;52.402;9.800;2022-12-18T16:17:16;-1.50;71.80
12229;DHT22;6177;52.402;9.800;2022-12-18T16:20:00;-1.40;72.00
12229;DHT22;6177;52.402;9.800;2022-12-18T16:22:46;-1.40;71.80
12229;DHT22;6177;52.402;9.800;2022-12-18T16:25:31;-1.40;71.60
12229;DHT22;6177;52.402;9.800;2022-12-18T16:28:16;-1.30;71.40
12229;DHT22;6177;52.402;9.800;2022-12-18T16:31:01;-1.20;71.40
12229;DHT22;6177;52.402;9.800;2022-12-18T16:33:46;-1.20;71.40
12229;DHT22;6177;52.402;9.800;2022-12-18T16:36:31;-1.20;71.40
12229;DHT22;6177;52.402;9.800;2022-12-18T16:39:17;-1.20;71.50
12229;DHT22;6177;52.402;9.800;2022-12-18T16:42:13;-1.20;71.70
12229;DHT22;6177;52.402;9.800;2022-12-18T16:44:59;-1.20;71.70
12229;DHT22;6177;52.402;9.800;2022-12-18T16:47:45;-1.20;71.60
12229;DHT22;6177;52.402;9.800;2022-12-18T16:50:30;-1.10;71.30
12229;DHT22;6177;52.402;9.800;2022-12-18T16:53:14;-1.10;71.00
12229;DHT22;6177;52.402;9.800;2022-12-18T16:55:59;-1.10;70.80
12229;DHT22;6177;52.402;9.800;2022-12-18T16:58:55;-1.10;70.60
12229;DHT22;6177;52.402;9.800;2022-12-18T17:01:43;-1.00;70.70
12229;DHT22;6177;52.402;9.800;2022-12-18T17:04:28;-1.00;70.90
12229;DHT22;6177;52.402;9.800;2022-12-18T17:07:14;-1.00;71.00
12229;DHT22;6177;52.402;9.800;2022-12-18T17:10:00;-1.00;70.80
12229;DHT22;6177;52.402;9.800;2022-12-18T17:12:44;-0.90;70.70
12229;DHT22;6177;52.402;9.800;2022-12-18T17:15:29;-0.90;70.70
12229;DHT22;6177;52.402;9.800;2022-12-18T17:18:14;-0.90;70.70
12229;DHT22;6177;52.402;9.800;2022-12-18T17:21:00;-0.90;70.30
12229;DHT22;6177;52.402;9.800;2022-12-18T17:23:46;-0.90;70.00
12229;DHT22;6177;52.402;9.800;2022-12-18T17:26:30;-0.80;69.80
12229;DHT22;6177;52.402;9.800;2022-12-18T17:29:18;-0.80;69.80
12229;DHT22;6177;52.402;9.800;2022-12-18T17:32:04;-0.80;69.40
12229;DHT22;6177;52.402;9.800;2022-12-18T17:34:49;-0.70;69.60
12229;DHT22;6177;52.402;9.800;2022-12-18T17:37:33;-0.70;69.60
12229;DHT22;6177;52.402;9.800;2022-12-18T17:40:18;-0.70;69.20
12229;DHT22;6177;52.402;9.800;2022-12-18T17:43:03;-0.70;69.10
12229;DHT22;6177;52.402;9.800;2022-12-18T17:45:49;-0.60;69.30
12229;DHT22;6177;52.402;9.800;2022-12-18T17:48:33;-0.60;68.90
12229;DHT22;6177;52.402;9.800;2022-12-18T17:51:18;-0.60;68.90
12229;DHT22;6177;52.402;9.800;2022-12-18T17:54:03;-0.60;68.90
12229;DHT22;6177;52.402;9.800;2022-12-18T17:56:49;-0.50;69.00
12229;DHT22;6177;52.402;9.800;2022-12-18T17:59:33;-0.50;68.50
12229;DHT22;6177;52.402;9.800;2022-12-18T18:02:18;-0.50;68.30
12229;DHT22;6177;52.402;9.800;2022-12-18T18:05:04;-0.50;68.50
12229;DHT22;6177;52.402;9.800;2022-12-18T18:07:48;-0.50;68.50
12229;DHT22;6177;52.402;9.800;2022-12-18T18:10:38;-0.50;68.60
12229;DHT22;6177;52.402;9.800;2022-12-18T18:13:25;-0.50;68.50
12229;DHT22;6177;52.402;9.800;2022-12-18T18:16:43;-0.40;68.40
12229;DHT22;6177;52.402;9.800;2022-12-18T18:19:29;-0.40;68.10
12229;DHT22;6177;52.402;9.800;2022-12-18T18:22:17;-0.30;67.90
12229;DHT22;6177;52.402;9.800;2022-12-18T18:25:03;-0.30;67.60
12229;DHT22;6177;52.402;9.800;2022-12-18T18:27:49;-0.30;67.60
12229;DHT22;6177;52.402;9.800;2022-12-18T18:30:35;-0.30;67.60
12229;DHT22;6177;52.402;9.800;2022-12-18T18:33:20;-0.30;67.80
12229;DHT22;6177;52.402;9.800;2022-12-18T18:36:08;-0.30;68.10
12229;DHT22;6177;52.402;9.800;2022-12-18T18:38:53;-0.30;67.60
12229;DHT22;6177;52.402;9.800;2022-12-18T18:41:39;-0.30;67.30
12229;DHT22;6177;52.402;9.800;2022-12-18T18:44:23;-0.30;67.30
12229;DHT22;6177;52.402;9.800;2022-12-18T18:47:08;-0.30;67.40
12229;DHT22;6177;52.402;9.800;2022-12-18T18:49:53;-0.30;67.20
12229;DHT22;6177;52.402;9.800;2022-12-18T18:52:40;-0.30;67.30
12229;DHT22;6177;52.402;9.800;2022-12-18T18:55:25;-0.30;67.20
12229;DHT22;6177;52.402;9.800;2022-12-18T18:58:11;-0.30;67.20
12229;DHT22;6177;52.402;9.800;2022-12-18T19:00:59;-0.20;67.10
12229;DHT22;6177;52.402;9.800;2022-12-18T19:03:45;-0.20;66.80
12229;DHT22;6177;52.402;9.800;2022-12-18T19:06:30;-0.20;66.60
12229;DHT22;6177;52.402;9.800;2022-12-18T19:09:15;-0.20;66.60
12229;DHT22;6177;52.402;9.800;2022-12-18T19:12:01;-0.20;66.50
12229;DHT22;6177;52.402;9.800;2022-12-18T19:15:05;-0.20;66.60
12229;DHT22;6177;52.402;9.800;2022-12-18T19:17:51;-0.10;66.70
12229;DHT22;6177;52.402;9.800;2022-12-18T19:20:36;-0.10;66.70
12229;DHT22;6177;52.402;9.800;2022-12-18T19:23:22;-0.10;66.50
12229;DHT22;6177;52.402;9.800;2022-12-18T19:26:07;0.00;66.50
12229;DHT22;6177;52.402;9.800;2022-12-18T19:29:02;0.00;66.40
12229;DHT22;6177;52.402;9.800;2022-12-18T19:31:48;0.00;66.20
12229;DHT22;6177;52.402;9.800;2022-12-18T19:34:34;0.00;66.10
12229;DHT22;6177;52.402;9.800;2022-12-18T19:37:18;0.00;66.10
12229;DHT22;6177;52.402;9.800;2022-12-18T19:40:04;0.00;66.20
12229;DHT22;6177;52.402;9.800;2022-12-18T19:42:50;0.00;66.20
12229;DHT22;6177;52.402;9.800;2022-12-18T19:45:35;0.10;66.30
12229;DHT22;6177;52.402;9.800;2022-12-18T19:48:20;0.10;66.50
12229;DHT22;6177;52.402;9.800;2022-12-18T19:51:29;0.10;66.40
12229;DHT22;6177;52.402;9.800;2022-12-18T19:54:15;0.10;66.30
12229;DHT22;6177;52.402;9.800;2022-12-18T19:56:59;0.10;66.00
12229;DHT22;6177;52.402;9.800;2022-12-18T19:59:45;0.20;65.90
12229;DHT22;6177;52.402;9.800;2022-12-18T20:02:30;0.20;66.00
12229;DHT22;6177;52.402;9.800;2022-12-18T20:05:20;0.20;65.70
12229;DHT22;6177;52.402;9.800;2022-12-18T20:08:09;0.20;65.60